Capivara, Argentina
Current Conditions -  °F | °C
As of 6:00 AM on Friday 19 Dec 2014 (Local Time) from SAAR Reporting Station
Clear Clear  
Wind Chill: 66°   Ceiling: Unl
Heat Index: 66°   Visibility: 6mi
Dew Point: 61°   Wind: 5mph
Humidity: 83%   Direction: 340°NNW
Pressure: 29.71"   Gusts: NA
Location:  30.56°S, 61.3°W
Report Text: SAAR 190900Z 34004KT CAVOK 19/16 Q1006
Loading
Personal Weather Stations






























Interactive Weather Map New forecast layout! Learn more

10-Day Weather Forecast

Advertisements
Track Severe Weather on mobile